createdAt,value
2018-11-05T00:00:45.579Z,225.00
2018-11-05T00:03:19.378Z,224.20
2018-11-05T00:05:51.494Z,207.40
2018-11-05T00:08:23.475Z,232.00
2018-11-05T00:11:13.031Z,230.50
2018-11-05T00:13:45.364Z,231.50
2018-11-05T00:16:17.218Z,234.00
2018-11-05T00:18:49.496Z,247.00
2018-11-05T00:21:21.578Z,245.00
2018-11-05T00:23:53.702Z,236.50
2018-11-05T00:26:26.098Z,219.00
2018-11-05T00:28:58.304Z,224.00
2018-11-05T00:31:30.374Z,202.25
2018-11-05T00:34:02.476Z,241.25
2018-11-05T00:36:34.509Z,206.50
2018-11-05T00:39:09.409Z,254.50
2018-11-05T00:41:41.513Z,241.50
2018-11-05T00:44:13.708Z,233.00
2018-11-05T00:46:45.900Z,237.25
2018-11-05T00:49:18.134Z,243.25
2018-11-05T00:51:49.960Z,251.25
2018-11-05T00:54:22.169Z,240.25
2018-11-05T00:56:54.791Z,247.25
2018-11-05T00:59:26.911Z,229.25
2018-11-05T01:01:58.784Z,231.00
2018-11-05T01:04:32.000Z,231.75
2018-11-05T01:07:04.037Z,250.25
2018-11-05T01:09:36.346Z,251.25
2018-11-05T01:12:08.392Z,248.00
2018-11-05T01:14:40.661Z,239.25
2018-11-05T01:17:12.676Z,235.50
2018-11-05T01:19:44.749Z,243.50
2018-11-05T01:22:16.746Z,252.75
2018-11-05T01:24:48.819Z,253.25
2018-11-05T01:27:21.068Z,241.00
2018-11-05T01:29:53.027Z,228.00
2018-11-05T01:32:25.143Z,248.00
2018-11-05T01:34:57.204Z,238.75
2018-11-05T01:37:29.384Z,233.75
2018-11-05T01:40:01.098Z,245.75
2018-11-05T01:42:33.196Z,247.25
2018-11-05T01:45:05.362Z,252.25
2018-11-05T01:47:37.435Z,251.25
2018-11-05T01:50:11.003Z,267.75
2018-11-05T01:52:43.563Z,203.75
2018-11-05T01:55:15.811Z,243.25
2018-11-05T01:57:48.606Z,252.75
2018-11-05T02:00:20.791Z,277.50
2018-11-05T02:02:52.857Z,280.25
2018-11-05T02:05:25.153Z,258.75
2018-11-05T02:07:57.017Z,273.25
2018-11-05T02:10:29.113Z,311.75
2018-11-05T02:13:00.938Z,301.50
2018-11-05T02:15:32.995Z,275.25
2018-11-05T02:18:04.886Z,298.75
2018-11-05T02:20:37.239Z,298.75
2018-11-05T02:23:09.254Z,298.00
2018-11-05T02:25:41.195Z,311.50
2018-11-05T02:28:14.478Z,308.75
2018-11-05T02:30:46.696Z,333.75
2018-11-05T02:33:18.625Z,335.50
2018-11-05T02:35:50.524Z,309.75
2018-11-05T02:38:22.615Z,323.50
2018-11-05T02:40:54.769Z,330.25
2018-11-05T02:43:26.735Z,323.00
2018-11-05T02:45:58.857Z,336.00
2018-11-05T02:48:30.981Z,304.50
2018-11-05T02:51:02.929Z,334.25
2018-11-05T02:53:34.383Z,329.50
2018-11-05T02:56:07.019Z,332.25
2018-11-05T02:58:39.416Z,387.00
2018-11-05T03:01:11.450Z,374.00
2018-11-05T03:03:43.593Z,394.50
2018-11-05T03:06:16.004Z,389.75
2018-11-05T03:08:48.088Z,386.75
2018-11-05T03:11:20.072Z,412.50
2018-11-05T03:13:52.019Z,415.75
2018-11-05T03:16:24.374Z,438.20
2018-11-05T03:18:56.322Z,437.00
2018-11-05T03:21:28.613Z,437.00
2018-11-05T03:24:00.879Z,433.40
2018-11-05T03:26:32.858Z,440.20
2018-11-05T03:29:05.214Z,472.40
2018-11-05T03:31:37.448Z,480.20
2018-11-05T03:34:09.523Z,490.60
2018-11-05T03:36:41.774Z,511.50
2018-11-05T03:39:13.927Z,476.75
2018-11-05T03:41:46.198Z,523.75
2018-11-05T03:44:18.294Z,507.75
2018-11-05T03:46:50.471Z,539.50
2018-11-05T03:49:22.644Z,490.80
2018-11-05T03:51:54.966Z,512.75
2018-11-05T03:54:26.676Z,521.75
2018-11-05T03:56:58.715Z,525.60
2018-11-05T03:59:31.347Z,529.75
2018-11-05T04:02:03.531Z,533.75
2018-11-05T04:04:35.686Z,532.00
2018-11-05T04:07:08.016Z,495.20
2018-11-05T04:09:39.840Z,506.50
2018-11-05T04:12:11.829Z,478.80
2018-11-05T04:14:43.961Z,481.60
2018-11-05T04:17:16.167Z,431.00
2018-11-05T04:19:48.401Z,477.80
2018-11-05T04:22:20.875Z,459.40
2018-11-05T04:24:53.106Z,483.20
2018-11-05T04:27:25.105Z,464.40
2018-11-05T04:29:57.422Z,491.00
2018-11-05T04:32:30.218Z,471.00
2018-11-05T04:35:01.923Z,512.75
2018-11-05T04:37:33.508Z,491.00
2018-11-05T04:40:06.028Z,509.80
2018-11-05T04:42:38.103Z,494.20
2018-11-05T04:45:12.206Z,527.00
2018-11-05T04:47:44.811Z,484.25
2018-11-05T04:50:17.067Z,455.40
2018-11-05T04:52:50.137Z,482.80
2018-11-05T04:55:23.161Z,502.25
2018-11-05T04:57:55.099Z,495.75
2018-11-05T05:00:28.347Z,479.80
2018-11-05T05:03:00.637Z,488.20
2018-11-05T05:05:33.221Z,475.00
2018-11-05T05:08:05.482Z,489.40
2018-11-05T05:10:38.403Z,447.40
2018-11-05T05:13:10.577Z,388.00
2018-11-05T05:15:42.664Z,373.25
2018-11-05T05:18:14.987Z,365.00
2018-11-05T05:20:47.308Z,339.25
2018-11-05T05:23:19.516Z,364.50
2018-11-05T05:25:52.054Z,355.25
2018-11-05T05:28:24.362Z,360.75
2018-11-05T05:30:57.166Z,332.75
2018-11-05T05:33:29.568Z,343.00
2018-11-05T05:36:01.661Z,326.50
2018-11-05T05:38:34.099Z,352.00
2018-11-05T05:41:06.721Z,334.25
2018-11-05T05:43:39.004Z,325.75
2018-11-05T05:46:11.226Z,294.50
2018-11-05T05:48:43.346Z,341.50
2018-11-05T05:51:15.287Z,321.75
2018-11-05T05:53:47.780Z,299.50
2018-11-05T05:56:21.565Z,277.50
2018-11-05T05:58:56.151Z,287.50
2018-11-05T06:01:28.968Z,296.50
2018-11-05T06:04:00.669Z,293.50
2018-11-05T06:06:32.873Z,283.00
2018-11-05T06:09:05.534Z,302.50
2018-11-05T06:11:37.386Z,296.00
2018-11-05T06:14:09.135Z,269.00
2018-11-05T06:16:41.340Z,279.25
2018-11-05T06:19:13.191Z,266.75
2018-11-05T06:21:45.301Z,260.25
2018-11-05T06:24:19.146Z,256.00
2018-11-05T06:26:51.048Z,242.75
2018-11-05T06:29:23.050Z,245.25
2018-11-05T06:31:55.559Z,241.25
2018-11-05T06:34:27.778Z,236.00
2018-11-05T06:36:59.959Z,226.00
2018-11-05T06:39:31.895Z,239.75
2018-11-05T06:42:04.061Z,226.75
2018-11-05T06:44:36.199Z,253.25
2018-11-05T06:47:11.813Z,224.75
2018-11-05T06:49:43.637Z,220.75
2018-11-05T06:52:15.128Z,225.40
2018-11-05T06:54:46.755Z,220.20
2018-11-05T06:57:18.477Z,218.20
2018-11-05T06:59:50.698Z,222.80
2018-11-05T07:02:23.513Z,217.20
2018-11-05T07:04:55.378Z,213.80
2018-11-05T07:07:27.305Z,206.40
2018-11-05T07:09:59.325Z,206.20
2018-11-05T07:12:31.421Z,214.40
2018-11-05T07:15:03.847Z,212.00
2018-11-05T07:17:36.107Z,225.20
2018-11-05T07:20:10.701Z,195.00
2018-11-05T07:22:42.829Z,210.20
2018-11-05T07:25:15.850Z,207.80
2018-11-05T07:27:48.962Z,201.20
2018-11-05T07:30:22.587Z,194.40
2018-11-05T07:32:56.296Z,207.00
2018-11-05T07:35:28.683Z,204.60
2018-11-05T07:38:00.852Z,209.20
2018-11-05T07:40:33.068Z,219.20
2018-11-05T07:43:05.513Z,213.20
2018-11-05T07:45:37.675Z,222.80
2018-11-05T07:48:10.054Z,214.20
2018-11-05T07:50:42.075Z,204.60
2018-11-05T07:53:14.480Z,219.20
2018-11-05T07:55:46.600Z,213.00
2018-11-05T07:58:18.820Z,216.20
2018-11-05T08:00:56.729Z,207.20
2018-11-05T08:03:29.518Z,203.00
2018-11-05T08:06:01.524Z,199.00
2018-11-05T08:08:33.567Z,208.20
2018-11-05T08:11:05.557Z,195.20
2018-11-05T08:13:37.563Z,211.20
2018-11-05T08:16:09.326Z,205.20
2018-11-05T08:18:42.985Z,221.60
2018-11-05T08:21:14.544Z,214.40
2018-11-05T08:23:46.977Z,219.00
2018-11-05T08:26:19.332Z,211.20
2018-11-05T08:28:51.854Z,220.00
2018-11-05T08:31:24.170Z,218.60
2018-11-05T08:33:56.641Z,212.80
2018-11-05T08:36:29.994Z,221.40
2018-11-05T08:39:02.476Z,223.80
2018-11-05T08:41:34.676Z,206.00
2018-11-05T08:44:07.128Z,210.20
2018-11-05T08:46:39.506Z,207.60
2018-11-05T08:49:11.277Z,214.80
2018-11-05T08:51:43.736Z,201.00
2018-11-05T08:54:16.441Z,215.80
2018-11-05T08:56:48.837Z,196.40
2018-11-05T08:59:20.867Z,199.00
2018-11-05T09:01:53.073Z,208.80
2018-11-05T09:04:25.964Z,240.00
2018-11-05T09:06:58.064Z,230.20
2018-11-05T09:09:29.998Z,228.60
2018-11-05T09:12:02.235Z,232.00
2018-11-05T09:14:34.493Z,236.25
2018-11-05T09:17:07.018Z,256.25
2018-11-05T09:19:39.696Z,256.00
2018-11-05T09:22:11.559Z,260.00
2018-11-05T09:24:43.551Z,262.50
2018-11-05T09:27:15.787Z,260.00
2018-11-05T09:29:47.915Z,252.75
2018-11-05T09:32:20.138Z,269.00
2018-11-05T09:34:52.958Z,260.00
2018-11-05T09:37:25.123Z,257.75
2018-11-05T09:39:57.046Z,256.25
2018-11-05T09:42:29.110Z,264.50
2018-11-05T09:45:01.477Z,251.00
2018-11-05T09:47:33.500Z,257.00
2018-11-05T09:50:05.691Z,255.25
2018-11-05T09:52:37.614Z,251.00
2018-11-05T09:55:10.699Z,266.50
2018-11-05T09:57:43.326Z,278.00
2018-11-05T10:00:20.121Z,271.25
2018-11-05T10:02:57.752Z,287.25
2018-11-05T10:05:30.370Z,285.00
2018-11-05T10:08:04.256Z,293.25
2018-11-05T10:10:38.868Z,272.25
2018-11-05T10:13:11.864Z,281.75
2018-11-05T10:15:43.895Z,274.50
2018-11-05T10:18:16.062Z,276.25
2018-11-05T10:20:47.996Z,271.00
2018-11-05T10:23:20.011Z,269.50
2018-11-05T10:25:52.095Z,254.00
2018-11-05T10:28:24.182Z,256.25
2018-11-05T10:30:55.986Z,257.25
2018-11-05T10:33:28.151Z,253.25
2018-11-05T10:36:00.792Z,260.25
2018-11-05T10:38:32.820Z,243.00
2018-11-05T10:41:04.808Z,246.75
2018-11-05T10:43:36.752Z,266.00
2018-11-05T10:46:08.920Z,247.50
2018-11-05T10:48:41.401Z,271.00
2018-11-05T10:51:14.029Z,258.50
2018-11-05T10:53:46.067Z,278.25
2018-11-05T10:56:19.027Z,274.25
2018-11-05T10:58:51.035Z,280.75
2018-11-05T11:01:27.919Z,276.25
2018-11-05T11:04:05.036Z,266.00
2018-11-05T11:06:37.523Z,281.50
2018-11-05T11:09:12.033Z,263.00
2018-11-05T11:11:44.159Z,296.00
2018-11-05T11:14:16.323Z,288.75
2018-11-05T11:16:48.529Z,289.00
2018-11-05T11:19:20.773Z,287.75
2018-11-05T11:21:53.267Z,279.50
2018-11-05T11:24:25.414Z,291.75
2018-11-05T11:26:57.289Z,293.50
2018-11-05T11:29:29.650Z,293.50
2018-11-05T11:32:02.144Z,312.75
2018-11-05T11:34:34.367Z,287.75
2018-11-05T11:37:06.895Z,309.25
2018-11-05T11:39:38.720Z,306.25
2018-11-05T11:42:10.598Z,332.50
2018-11-05T11:44:42.727Z,347.00
2018-11-05T11:47:14.779Z,359.00
2018-11-05T11:49:46.726Z,336.75
2018-11-05T11:52:18.879Z,356.50
2018-11-05T11:54:50.924Z,352.50
2018-11-05T11:57:22.764Z,351.50
2018-11-05T11:59:54.625Z,331.75
2018-11-05T12:02:26.992Z,362.50
2018-11-05T12:04:59.308Z,366.25
2018-11-05T12:07:31.763Z,355.25
2018-11-05T12:10:03.803Z,362.50
2018-11-05T12:12:35.878Z,389.50
2018-11-05T12:15:08.378Z,382.75
2018-11-05T12:17:41.561Z,392.50
2018-11-05T12:20:16.071Z,412.25
2018-11-05T12:22:48.847Z,396.25
2018-11-05T12:25:20.962Z,384.00
2018-11-05T12:27:53.205Z,389.25
2018-11-05T12:30:25.523Z,403.50
2018-11-05T12:32:57.604Z,382.75
2018-11-05T12:35:29.574Z,402.75
2018-11-05T12:38:02.155Z,380.00
2018-11-05T12:40:34.339Z,386.25
2018-11-05T12:43:06.789Z,380.75
2018-11-05T12:45:38.984Z,392.25
2018-11-05T12:48:11.132Z,380.25
2018-11-05T12:50:43.119Z,361.75
2018-11-05T12:53:15.623Z,371.50
2018-11-05T12:55:47.531Z,384.25
2018-11-05T12:58:21.608Z,374.25
2018-11-05T13:00:53.809Z,338.25
2018-11-05T13:03:25.942Z,318.25
2018-11-05T13:05:58.134Z,340.00
2018-11-05T13:08:30.946Z,344.00
2018-11-05T13:11:02.746Z,319.75
2018-11-05T13:13:34.719Z,299.75
2018-11-05T13:16:06.639Z,334.25
2018-11-05T13:18:38.748Z,324.00
2018-11-05T13:21:10.749Z,308.75
2018-11-05T13:23:46.747Z,327.50
2018-11-05T13:26:18.691Z,318.25
2018-11-05T13:28:50.469Z,319.50
2018-11-05T13:31:22.704Z,329.25
2018-11-05T13:33:55.291Z,307.50
2018-11-05T13:36:27.390Z,315.25
2018-11-05T13:38:59.772Z,304.00
2018-11-05T13:41:31.932Z,294.25
2018-11-05T13:44:04.096Z,293.00
2018-11-05T13:46:36.590Z,311.25
2018-11-05T13:49:08.891Z,293.25
2018-11-05T13:51:40.625Z,304.50
2018-11-05T13:54:13.686Z,319.00
2018-11-05T13:56:46.056Z,309.75
2018-11-05T13:59:18.188Z,294.75
2018-11-05T14:01:51.304Z,274.75
2018-11-05T14:04:23.336Z,297.75
2018-11-05T14:06:55.509Z,288.75
2018-11-05T14:09:27.898Z,297.50
2018-11-05T14:12:00.106Z,260.50
2018-11-05T14:14:32.230Z,279.75
2018-11-05T14:17:04.463Z,279.00
2018-11-05T14:19:36.139Z,288.00
2018-11-05T14:22:07.745Z,302.00
2018-11-05T14:24:39.115Z,273.75
2018-11-05T14:27:11.230Z,299.75
2018-11-05T14:29:43.824Z,283.50
2018-11-05T14:32:15.826Z,264.25
2018-11-05T14:34:47.886Z,270.25
2018-11-05T14:37:20.533Z,253.75
2018-11-05T14:39:52.453Z,269.75
2018-11-05T14:42:24.687Z,277.25
2018-11-05T14:44:56.649Z,283.75
2018-11-05T14:47:28.875Z,276.00
2018-11-05T14:50:00.764Z,267.50
2018-11-05T14:52:32.820Z,254.25
2018-11-05T14:55:04.913Z,264.25
2018-11-05T14:57:37.186Z,270.75
2018-11-05T15:00:18.603Z,276.75
2018-11-05T15:02:51.342Z,273.00
2018-11-05T15:05:23.364Z,270.50
2018-11-05T15:07:55.832Z,270.00
2018-11-05T15:10:28.340Z,277.25
2018-11-05T15:13:00.513Z,256.75
2018-11-05T15:15:32.706Z,248.75
2018-11-05T15:18:04.622Z,247.00
2018-11-05T15:20:37.211Z,263.75
2018-11-05T15:23:09.202Z,249.75
2018-11-05T15:25:41.402Z,239.25
2018-11-05T15:28:13.556Z,235.75
2018-11-05T15:30:45.671Z,239.50
2018-11-05T15:33:17.593Z,240.25
2018-11-05T15:35:50.305Z,250.00
2018-11-05T15:38:22.638Z,249.00
2018-11-05T15:40:55.113Z,249.50
2018-11-05T15:43:27.060Z,227.75
2018-11-05T15:45:58.951Z,264.75
2018-11-05T15:48:31.562Z,237.75
2018-11-05T15:51:03.860Z,237.25
2018-11-05T15:53:36.744Z,239.50
2018-11-05T15:56:08.284Z,221.50
2018-11-05T15:58:40.809Z,241.25
2018-11-05T16:01:12.852Z,244.00
2018-11-05T16:03:45.015Z,236.50
2018-11-05T16:06:17.131Z,228.25
2018-11-05T16:08:51.006Z,217.50
2018-11-05T16:11:23.817Z,221.25
2018-11-05T16:13:55.903Z,242.50
2018-11-05T16:16:28.094Z,251.25
2018-11-05T16:19:00.070Z,223.50
2018-11-05T16:21:31.577Z,222.75
2018-11-05T16:24:04.440Z,222.50
2018-11-05T16:26:36.369Z,236.50
2018-11-05T16:29:08.654Z,247.00
2018-11-05T16:38:37.310Z,186.25
2018-11-05T16:41:09.231Z,237.75
2018-11-05T16:43:41.802Z,216.75
2018-11-05T16:46:13.903Z,237.00
2018-11-05T16:48:45.900Z,259.50
2018-11-05T16:51:18.295Z,225.50
2018-11-05T16:53:50.248Z,245.25
2018-11-05T16:56:22.656Z,228.75
2018-11-05T16:58:54.730Z,225.50
2018-11-05T17:01:27.112Z,223.60
2018-11-05T17:03:59.063Z,233.25
2018-11-05T17:06:31.332Z,220.40
2018-11-05T17:09:03.599Z,226.75
2018-11-05T17:11:35.847Z,230.00
2018-11-05T17:14:08.635Z,236.75
2018-11-05T17:16:40.449Z,233.50
2018-11-05T17:19:12.493Z,225.50
2018-11-05T17:21:44.430Z,234.00
2018-11-05T17:24:16.209Z,228.75
2018-11-05T17:26:48.250Z,237.20
2018-11-05T17:29:20.928Z,243.00
2018-11-05T17:31:53.018Z,230.00
2018-11-05T17:34:25.446Z,225.00
2018-11-05T17:36:57.658Z,237.50
2018-11-05T17:39:29.827Z,238.00
2018-11-05T17:42:01.996Z,244.50
2018-11-05T17:44:34.257Z,237.00
2018-11-05T17:47:06.531Z,258.00
2018-11-05T17:49:44.074Z,261.25
2018-11-05T17:52:16.205Z,251.00
2018-11-05T17:54:48.321Z,244.75
2018-11-05T17:57:20.381Z,237.75
2018-11-05T17:59:52.563Z,243.75
2018-11-05T18:02:25.637Z,238.50
2018-11-05T18:04:58.096Z,245.25
2018-11-05T18:07:30.340Z,240.50
2018-11-05T18:10:02.337Z,236.00
2018-11-05T18:12:34.449Z,251.25
2018-11-05T18:15:07.883Z,247.00
2018-11-05T18:17:40.956Z,222.00
2018-11-05T18:20:14.287Z,214.00
2018-11-05T18:22:46.658Z,253.00
2018-11-05T18:25:19.787Z,242.25
2018-11-05T18:27:51.857Z,240.00
2018-11-05T18:30:24.115Z,242.75
2018-11-05T18:32:56.106Z,241.75
2018-11-05T18:35:28.373Z,251.50
2018-11-05T18:38:00.639Z,258.75
2018-11-05T18:40:32.775Z,258.75
2018-11-05T18:43:05.259Z,256.50
2018-11-05T18:45:38.356Z,242.25
2018-11-05T18:48:10.682Z,242.25
2018-11-05T18:50:42.732Z,250.00
2018-11-05T18:53:14.828Z,227.25
2018-11-05T18:55:46.876Z,228.25
2018-11-05T18:58:18.903Z,250.25
2018-11-05T19:00:50.891Z,224.75
2018-11-05T19:03:22.752Z,227.25
2018-11-05T19:05:54.843Z,253.25
2018-11-05T19:08:27.164Z,259.50
2018-11-05T19:10:59.301Z,272.00
2018-11-05T19:13:31.215Z,238.50
2018-11-05T19:16:05.254Z,231.00
2018-11-05T19:18:37.467Z,230.25
2018-11-05T19:21:09.605Z,245.00
2018-11-05T19:23:41.990Z,252.25
2018-11-05T19:26:13.995Z,255.50
2018-11-05T19:28:46.056Z,236.00
2018-11-05T19:31:17.852Z,267.25
2018-11-05T19:33:49.856Z,245.00
2018-11-05T19:36:23.302Z,248.50
2018-11-05T19:38:56.330Z,253.50
2018-11-05T19:41:28.491Z,245.75
2018-11-05T19:44:00.863Z,236.25
2018-11-05T19:46:33.358Z,236.00
2018-11-05T19:49:05.621Z,256.50
2018-11-05T19:51:37.645Z,232.00
2018-11-05T19:54:09.994Z,220.75
2018-11-05T19:56:42.008Z,247.25
2018-11-05T19:59:14.361Z,234.00
2018-11-05T20:01:46.611Z,218.00
2018-11-05T20:04:19.267Z,236.75
2018-11-05T20:06:51.178Z,245.50
2018-11-05T20:09:23.246Z,228.00
2018-11-05T20:11:55.132Z,251.75
2018-11-05T20:14:27.235Z,255.75
2018-11-05T20:17:00.353Z,253.25
2018-11-05T20:19:32.329Z,265.00
2018-11-05T20:23:07.466Z,214.50
2018-11-05T20:25:39.754Z,261.50
2018-11-05T20:28:11.889Z,244.00
2018-11-05T20:30:43.988Z,244.75
2018-11-05T20:33:16.475Z,244.50
2018-11-05T20:35:48.413Z,239.75
2018-11-05T20:38:20.676Z,252.00
2018-11-05T20:40:54.064Z,258.25
2018-11-05T20:43:26.396Z,226.75
2018-11-05T20:45:58.276Z,245.00
2018-11-05T20:48:30.726Z,238.25
2018-11-05T20:51:02.793Z,226.50
2018-11-05T20:53:36.671Z,232.50
2018-11-05T20:56:08.623Z,245.25
2018-11-05T20:58:40.757Z,244.25
2018-11-05T21:01:12.864Z,261.00
2018-11-05T21:03:45.001Z,237.25
2018-11-05T21:06:16.904Z,231.25
2018-11-05T21:08:48.943Z,224.50
2018-11-05T21:11:20.874Z,241.50
2018-11-05T21:13:53.123Z,246.75
2018-11-05T21:16:25.218Z,241.50
2018-11-05T21:18:57.762Z,237.50
2018-11-05T21:21:29.886Z,252.75
2018-11-05T21:24:02.166Z,230.00
2018-11-05T21:26:34.180Z,226.50
2018-11-05T21:29:06.788Z,251.50
2018-11-05T21:31:38.816Z,239.00
2018-11-05T21:34:10.997Z,247.25
2018-11-05T21:36:43.891Z,238.00
2018-11-05T21:39:16.259Z,236.25
2018-11-05T21:41:48.287Z,221.00
2018-11-05T21:44:20.191Z,224.80
2018-11-05T21:46:52.179Z,244.00
2018-11-05T21:49:24.543Z,223.60
2018-11-05T21:51:56.398Z,249.40
2018-11-05T21:54:28.577Z,212.40
2018-11-05T21:57:00.739Z,219.00
2018-11-05T21:59:32.751Z,229.00
2018-11-05T22:02:04.983Z,229.00
2018-11-05T22:04:37.235Z,229.40
2018-11-05T22:07:09.546Z,229.80
2018-11-05T22:09:41.264Z,237.50
2018-11-05T22:12:13.420Z,232.00
2018-11-05T22:14:45.678Z,226.80
2018-11-05T22:17:17.878Z,217.80
2018-11-05T22:19:50.638Z,234.60
2018-11-05T22:22:22.935Z,233.80
2018-11-05T22:24:55.214Z,228.00
2018-11-05T22:27:27.539Z,234.80
2018-11-05T22:30:01.229Z,230.80
2018-11-05T22:32:33.367Z,219.40
2018-11-05T22:35:05.395Z,214.60
2018-11-05T22:37:37.959Z,221.20
2018-11-05T22:40:12.525Z,227.60
2018-11-05T22:42:44.623Z,230.60
2018-11-05T22:45:16.864Z,222.80
2018-11-05T22:47:48.940Z,221.20
2018-11-05T22:50:21.888Z,210.40
2018-11-05T22:52:54.296Z,242.60
2018-11-05T22:55:26.410Z,231.00
2018-11-05T22:57:58.792Z,215.00
2018-11-05T23:00:35.672Z,218.40
2018-11-05T23:03:12.564Z,213.40
2018-11-05T23:05:44.771Z,227.60
2018-11-05T23:08:16.957Z,222.80
2018-11-05T23:10:49.083Z,223.00
2018-11-05T23:13:21.598Z,231.80
2018-11-05T23:15:53.525Z,213.40
2018-11-05T23:18:26.307Z,232.20
2018-11-05T23:20:58.917Z,209.80
2018-11-05T23:23:31.017Z,224.40
2018-11-05T23:26:03.331Z,228.20
2018-11-05T23:28:35.522Z,219.00
2018-11-05T23:31:08.597Z,215.40
2018-11-05T23:33:41.333Z,222.60
2018-11-05T23:36:13.435Z,234.20
2018-11-05T23:38:45.602Z,230.40
2018-11-05T23:41:17.511Z,226.40
2018-11-05T23:43:49.884Z,226.20
2018-11-05T23:46:22.269Z,227.20
2018-11-05T23:48:54.464Z,212.20
2018-11-05T23:51:27.163Z,212.80
2018-11-05T23:53:59.475Z,229.40
2018-11-05T23:56:31.772Z,226.20
2018-11-05T23:59:03.963Z,231.00
